Terminal Aerodrome Forecast
Issued by NWS

Home | Current Version | Previous Version | Text Only | Print | Product List | Glossary On
Versions: 1 2 3 4 5 6 7 8 9 10 11 12 13 14 15 16 17 18 19 20 21
300
FTUS45 KRIW 302333
TAFRKS
TAF
KRKS 302333Z 0100/0124 06015G25KT P6SM VCSH SCT015 OVC030
     FM010200 07016KT P6SM SCT035 BKN050
     FM010800 06011KT P6SM SCT008 BKN015
     FM011600 06020G26KT P6SM SCT015=

USA.gov is the U.S. government's official web portal to all federal, state and local government web resources and services.